Pagrindinis puslapis
METAR-TAF:

METAR-TAF

Oro uostai :

Dubajaus tarptautinis oro uostas

Dubajus, Jungtiniai Arabų Emyratai

platuma: 25-15-10N, ilguma: 055-21-52E, Aukštis: 8 m

Dabartinis oras

Ataskaita buvo paskelbta 1 valandą ir 44 minutes, ne 18:00 UTC
Vėjas 5 kt iš Šiaurės Rytų, svyruoja nuo Šiaurės ir Rytų
Temperatūra 31°C
Drėgmė 63%
Slėgis 1012 hPa
Matomumas 10 km arba daugiau
nėra debesų žemiau 1500 m ir nėra kamuolinių lietaus debesų

METAR: OMDB 221800Z 05005KT 360V100 CAVOK 31/23 Q1012 NOSIG

Laikas: 23:44 (19:44 UTC)

Prognozė

Ataskaita buvo paskelbta 2 valandos ir 44 minutes, ne 17:00 UTC
Prognozė galioja nuo 22 metu 18 UTC su 24 metu 00 UTC
Vėjas 7 kt iš Rytų
Matomumas 10 km arba daugiau
nėra debesų žemiau 1500 m ir nėra kamuolinių lietaus debesų
Tapsmas
nuo 23 metu 09 UTC su 23 metu 11 UTC
Vėjas 12 kt iš Šiaurės/Šiaurės Vakarų
Tapsmas
nuo 23 metu 16 UTC su 23 metu 18 UTC
Vėjas 5 kt iš Rytų

TAF: OMDB 221700Z 2218/2400 09007KT CAVOK BECMG 2309/2311 34012KT BECMG 2316/2318 10005KT

Orai ataskaitas ir orų prognozės (METAR, TAF).

turimą stotys yra geltonos ir raudonos taškus žemėlapyje.

Perkelti pele per norėdami pamatyti stoties vardą.

Tada spustelėkite, norėdami matyti oro stebėjimo ir prognozės.

Norėdami pakeisti žemėlapį: spustelėkite ant žalios mygtukų su juodo kryžiaus žemyn,; žalią mygtuką su brūkšneliu, jei norite nutolinti; arba žalių rodyklių gretimoms žemėlapius.


METAR-TAF: